Time;durP1;ratioP1;P1;durP2;ratioP2;P2;SDS_P1;SDS_P2;PMS_P1;PMS_P2;Temp;Humidity;BMP_temperature;BMP_pressure;BME280_temperature;BME280_humidity;BME280_pressure;Samples;Min_cycle;Max_cycle;Signal;HPM_P1;HPM_P2
2021/10/02 00:45:22;;;;;;;9.00;4.47;;;13.80;97.80;;;;;;5075988;28;20044;-69
2021/10/02 00:47:54;;;;;;;7.80;4.25;;;13.80;97.80;;;;;;5075399;28;20029;-69
2021/10/02 00:50:20;;;;;;;11.38;4.85;;;13.70;98.00;;;;;;5075612;28;20030;-69
2021/10/02 00:52:47;;;;;;;7.28;4.00;;;13.50;98.00;;;;;;5056618;28;20068;-69
2021/10/02 00:55:15;;;;;;;10.25;4.65;;;13.40;98.00;;;;;;5054808;28;20079;-69
2021/10/02 00:57:41;;;;;;;8.10;4.68;;;13.30;98.00;;;;;;5066113;28;20029;-69
2021/10/02 01:00:09;;;;;;;8.40;4.10;;;13.40;98.00;;;;;;5075703;28;20023;-69
2021/10/02 01:03:27;;;;;;;8.48;4.22;;;13.40;98.00;;;;;;5075135;28;20028;-69
2021/10/02 01:05:58;;;;;;;7.40;4.45;;;13.40;98.00;;;;;;5014682;28;20043;-69
2021/10/02 01:08:45;;;;;;;6.70;4.18;;;13.40;98.00;;;;;;5071186;28;20031;-69
2021/10/02 01:11:32;;;;;;;8.27;4.50;;;13.40;98.00;;;;;;5060315;28;20091;-69
2021/10/02 01:14:16;;;;;;;9.93;4.90;;;13.30;98.00;;;;;;5074790;28;20438;-69
2021/10/02 01:16:50;;;;;;;9.90;4.93;;;13.20;98.00;;;;;;5056409;28;20099;-70
2021/10/02 01:19:48;;;;;;;10.65;4.65;;;13.20;98.00;;;;;;5075267;28;20032;-71
2021/10/02 01:22:19;;;;;;;8.45;4.95;;;13.10;98.00;;;;;;5075404;28;20082;-70
2021/10/02 01:25:26;;;;;;;9.43;5.57;;;13.10;98.00;;;;;;5075036;28;20035;-70
2021/10/02 01:28:06;;;;;;;8.65;4.50;;;13.00;98.00;;;;;;5040850;28;20052;-69
2021/10/02 01:47:38;;;;;;;8.60;5.18;;;12.20;98.00;;;;;;5074161;28;20447;-69
2021/10/02 01:50:06;;;;;;;9.80;5.72;;;12.10;98.00;;;;;;5074853;28;20021;-69
2021/10/02 01:52:41;;;;;;;8.82;5.15;;;12.10;98.00;;;;;;5074175;28;20029;-69
2021/10/02 01:55:10;;;;;;;11.32;5.15;;;12.10;98.00;;;;;;5072614;28;20021;-70
2021/10/02 01:57:40;;;;;;;8.95;5.57;;;12.00;98.00;;;;;;5074398;28;20631;-69
2021/10/02 02:00:10;;;;;;;13.30;5.93;;;12.00;97.60;;;;;;5074984;28;20033;-68
2021/10/02 02:02:39;;;;;;;8.57;5.20;;;12.00;97.80;;;;;;5073798;28;20522;-69
2021/10/02 02:05:07;;;;;;;12.88;6.15;;;12.00;97.80;;;;;;5073791;28;20371;-69
2021/10/02 02:07:37;;;;;;;10.02;5.75;;;12.10;98.00;;;;;;5061097;28;20021;-69
2021/10/02 02:10:06;;;;;;;13.20;6.28;;;12.20;98.00;;;;;;5073390;28;20025;-69
2021/10/02 02:12:33;;;;;;;14.07;6.82;;;12.10;98.00;;;;;;5074097;28;20107;-69
2021/10/02 02:15:08;;;;;;;12.57;5.75;;;12.00;98.00;;;;;;5074454;28;20032;-69
2021/10/02 02:17:36;;;;;;;;;;;12.00;98.00;;;;;;5074324;28;20459;-69
2021/10/02 02:20:05;;;;;;;10.48;6.57;;;11.90;98.00;;;;;;5074736;28;20229;-69
2021/10/02 02:22:31;;;;;;;11.38;6.43;;;11.90;98.00;;;;;;5074200;28;20421;-69
2021/10/02 02:24:57;;;;;;;11.13;6.82;;;11.90;98.00;;;;;;5074027;28;20074;-69
2021/10/02 02:27:23;;;;;;;12.95;6.32;;;11.90;98.00;;;;;;5073811;28;20024;-69
2021/10/02 02:29:50;;;;;;;13.75;7.03;;;11.90;98.00;;;;;;5074235;28;20035;-69
2021/10/02 02:32:18;;;;;;;11.30;6.47;;;11.90;98.00;;;;;;5074657;28;20027;-69
2021/10/02 02:34:47;;;;;;;10.88;6.38;;;11.90;98.00;;;;;;5073983;28;20020;-69
2021/10/02 02:37:13;;;;;;;10.43;5.72;;;11.80;98.00;;;;;;5056368;28;20056;-70
2021/10/02 02:39:39;;;;;;;12.48;6.25;;;11.80;98.00;;;;;;5073996;28;20056;-69
2021/10/02 02:42:05;;;;;;;11.45;6.65;;;11.70;98.00;;;;;;5073358;28;20034;-69
2021/10/02 02:44:34;;;;;;;11.23;6.88;;;11.70;98.00;;;;;;5073985;28;20413;-69
2021/10/02 02:47:11;;;;;;;12.23;6.55;;;11.60;97.90;;;;;;5074326;28;20414;-69
2021/10/02 02:49:47;;;;;;;13.07;6.80;;;11.50;97.80;;;;;;5073725;28;20043;-69
2021/10/02 02:52:20;;;;;;;11.88;6.80;;;11.40;97.80;;;;;;5074531;28;20401;-68
2021/10/02 02:55:03;;;;;;;11.70;6.80;;;11.40;97.80;;;;;;5073821;28;20013;-69
2021/10/02 02:57:37;;;;;;;12.32;7.00;;;11.30;97.60;;;;;;5074428;28;20313;-69
2021/10/02 03:00:13;;;;;;;11.90;6.78;;;11.30;97.80;;;;;;5074534;28;20324;-69
2021/10/02 03:02:53;;;;;;;12.60;7.30;;;11.10;97.80;;;;;;5073485;28;20112;-69
2021/10/02 03:05:21;;;;;;;10.85;7.20;;;11.10;97.40;;;;;;5072889;28;20090;-69
2021/10/02 03:08:08;;;;;;;15.52;6.63;;;11.10;97.50;;;;;;5057520;28;20307;-69
2021/10/02 03:10:35;;;;;;;12.38;7.47;;;10.90;97.70;;;;;;5056338;28;20620;-69
2021/10/02 03:13:10;;;;;;;13.18;7.32;;;10.80;97.60;;;;;;5059011;28;20029;-69
2021/10/02 03:15:37;;;;;;;12.05;6.95;;;10.70;96.90;;;;;;5061972;28;20017;-69
2021/10/02 03:18:03;;;;;;;11.07;7.40;;;10.80;97.10;;;;;;5057632;28;20071;-68
2021/10/02 03:20:30;;;;;;;13.85;8.05;;;10.70;97.10;;;;;;5057748;28;20040;-69
2021/10/02 03:22:56;;;;;;;10.45;6.70;;;10.70;97.10;;;;;;5057570;28;20460;-69
2021/10/02 03:25:26;;;;;;;11.73;7.47;;;10.60;96.90;;;;;;5062679;28;20020;-69
2021/10/02 03:27:58;;;;;;;13.40;7.60;;;10.60;96.90;;;;;;5077094;28;20029;-69
2021/10/02 03:30:30;;;;;;;12.55;6.95;;;10.50;96.70;;;;;;5077568;28;20026;-69
2021/10/02 03:32:56;;;;;;;12.27;7.25;;;10.60;96.60;;;;;;5077159;28;20081;-68
2021/10/02 03:35:25;;;;;;;12.93;6.72;;;10.60;96.70;;;;;;5076158;28;20020;-69
2021/10/02 03:37:54;;;;;;;12.63;7.13;;;10.60;96.70;;;;;;5076735;28;20029;-68
2021/10/02 03:40:21;;;;;;;12.10;7.45;;;10.60;97.00;;;;;;5076148;28;20028;-69
2021/10/02 03:42:53;;;;;;;13.50;6.85;;;10.60;97.20;;;;;;5076811;28;20087;-69
2021/10/02 03:45:20;;;;;;;16.02;7.15;;;10.60;97.20;;;;;;5077234;28;20464;-68
2021/10/02 03:47:46;;;;;;;13.07;7.38;;;10.50;97.30;;;;;;5076644;28;20413;-70
2021/10/02 03:50:12;;;;;;;16.55;7.15;;;10.50;97.40;;;;;;5077110;28;20023;-69
2021/10/02 03:52:41;;;;;;;14.48;6.90;;;10.40;97.40;;;;;;5076765;28;20053;-69
2021/10/02 03:55:13;;;;;;;13.20;7.68;;;10.30;97.40;;;;;;5075859;28;20074;-68
2021/10/02 03:57:39;;;;;;;11.98;7.10;;;10.20;97.60;;;;;;5076518;28;20028;-68
2021/10/02 04:00:07;;;;;;;10.45;6.35;;;10.00;97.50;;;;;;5076970;28;20085;-69
2021/10/02 04:02:32;;;;;;;11.02;6.63;;;9.90;97.40;;;;;;5076520;28;20028;-68
2021/10/02 04:04:58;;;;;;;10.82;6.50;;;9.90;97.00;;;;;;5076278;28;20028;-68
2021/10/02 04:07:24;;;;;;;10.77;6.22;;;9.80;96.90;;;;;;5066393;28;20108;-68
2021/10/02 04:09:49;;;;;;;11.80;6.32;;;9.70;96.80;;;;;;5063362;28;20234;-68
2021/10/02 04:12:15;;;;;;;13.25;6.85;;;9.60;96.80;;;;;;5074015;28;20028;-70
2021/10/02 04:14:41;;;;;;;14.25;7.55;;;9.60;96.00;;;;;;5067754;28;20089;-70
2021/10/02 04:17:06;;;;;;;11.25;6.65;;;9.70;96.40;;;;;;5056232;28;20338;-69
2021/10/02 04:19:32;;;;;;;11.98;6.45;;;9.70;96.10;;;;;;5074993;28;20071;-70
2021/10/02 04:21:58;;;;;;;9.68;6.10;;;9.80;96.20;;;;;;5076605;28;20028;-69
2021/10/02 04:24:28;;;;;;;12.10;7.00;;;9.90;96.20;;;;;;5062563;28;20032;-69
2021/10/02 04:26:58;;;;;;;10.60;6.57;;;9.90;96.20;;;;;;5054054;28;20025;-69
2021/10/02 04:29:30;;;;;;;10.52;6.07;;;10.10;96.20;;;;;;5057395;28;20324;-69
2021/10/02 04:31:56;;;;;;;10.05;5.90;;;10.20;96.60;;;;;;5055953;28;20052;-69
2021/10/02 04:34:25;;;;;;;11.60;5.53;;;10.30;96.90;;;;;;5057195;28;20417;-69
2021/10/02 04:36:51;;;;;;;9.32;4.88;;;10.30;97.30;;;;;;5059643;28;20321;-69
2021/10/02 04:39:16;;;;;;;10.77;5.53;;;10.50;98.00;;;;;;5056893;28;20033;-68
2021/10/02 04:41:42;;;;;;;9.55;4.88;;;10.60;98.00;;;;;;5056012;28;20322;-69
2021/10/02 04:44:08;;;;;;;8.32;4.63;;;10.70;98.00;;;;;;5056840;28;20060;-69
2021/10/02 04:46:34;;;;;;;10.68;4.65;;;10.70;98.00;;;;;;5069307;28;20031;-69
2021/10/02 04:48:59;;;;;;;8.60;4.25;;;10.80;98.00;;;;;;5076298;28;20463;-68
2021/10/02 04:51:25;;;;;;;8.10;3.90;;;10.90;98.00;;;;;;5076877;28;20313;-69
2021/10/02 04:53:53;;;;;;;7.35;4.38;;;11.00;98.00;;;;;;5076752;28;20402;-69
2021/10/02 04:56:20;;;;;;;9.80;4.78;;;11.10;98.00;;;;;;5075337;28;20107;-69
2021/10/02 04:58:46;;;;;;;7.18;3.72;;;11.10;98.00;;;;;;5076793;28;20016;-69
2021/10/02 05:01:15;;;;;;;6.18;3.70;;;11.10;98.00;;;;;;5076378;28;20028;-69
2021/10/02 05:03:41;;;;;;;7.13;3.28;;;11.20;98.00;;;;;;5075480;28;20360;-69
2021/10/02 05:06:07;;;;;;;8.35;3.45;;;11.30;98.00;;;;;;5071891;28;20306;-69
2021/10/02 05:08:34;;;;;;;7.85;3.85;;;11.50;97.10;;;;;;5076329;28;20516;-69
2021/10/02 05:11:01;;;;;;;7.05;3.47;;;11.60;96.90;;;;;;5062082;28;20024;-69
2021/10/02 05:13:27;;;;;;;6.55;3.38;;;11.70;96.30;;;;;;5075243;28;20298;-69
2021/10/02 05:15:54;;;;;;;9.27;3.95;;;11.70;96.30;;;;;;5071684;28;20033;-68
2021/10/02 05:18:20;;;;;;;6.65;3.40;;;11.60;96.20;;;;;;5076064;28;20056;-72
2021/10/02 05:20:46;;;;;;;7.65;3.35;;;11.60;96.70;;;;;;5076171;28;20036;-69
2021/10/02 05:23:12;;;;;;;6.35;3.70;;;11.50;96.50;;;;;;5071723;28;20032;-69
2021/10/02 05:25:40;;;;;;;9.80;4.53;;;11.50;96.20;;;;;;5066830;28;20035;-69
2021/10/02 05:28:06;;;;;;;8.35;4.22;;;11.50;96.00;;;;;;5064746;28;20032;-69
2021/10/02 05:30:34;;;;;;;7.68;4.15;;;11.60;95.90;;;;;;5056018;28;20017;-69
2021/10/02 05:33:01;;;;;;;8.13;4.20;;;11.60;96.60;;;;;;5056035;28;20025;-69
2021/10/02 05:35:30;;;;;;;10.38;4.40;;;11.50;97.20;;;;;;5063025;28;20438;-69
2021/10/02 05:37:58;;;;;;;7.68;3.58;;;11.50;96.80;;;;;;5057497;28;20025;-69
2021/10/02 05:40:24;;;;;;;9.00;3.85;;;11.60;96.20;;;;;;5063613;28;20122;-69
2021/10/02 05:42:50;;;;;;;7.13;3.95;;;11.80;96.10;;;;;;5074343;28;20405;-70
2021/10/02 05:45:15;;;;;;;6.32;3.42;;;12.00;95.10;;;;;;5075773;28;20031;-69
2021/10/02 05:47:41;;;;;;;10.32;3.65;;;12.20;94.20;;;;;;5073570;28;20039;-69
2021/10/02 05:50:07;;;;;;;8.18;4.25;;;12.40;94.20;;;;;;5075677;28;20020;-69
2021/10/02 05:52:33;;;;;;;6.65;3.22;;;12.50;93.30;;;;;;5074679;28;20325;-69
2021/10/02 05:54:58;;;;;;;6.68;3.50;;;12.60;92.70;;;;;;5074333;28;20025;-70
2021/10/02 05:57:24;;;;;;;7.88;3.60;;;12.70;92.50;;;;;;5064963;28;20025;-70
2021/10/02 05:59:49;;;;;;;6.82;3.50;;;12.80;91.50;;;;;;5065293;28;20044;-70
2021/10/02 06:02:15;;;;;;;12.15;3.92;;;12.90;91.20;;;;;;5057409;28;20060;-70
2021/10/02 06:04:41;;;;;;;7.13;3.00;;;12.90;91.00;;;;;;5068282;28;20055;-70
2021/10/02 06:07:13;;;;;;;8.18;3.40;;;13.00;91.00;;;;;;5072398;28;20086;-70
2021/10/02 06:09:39;;;;;;;7.07;3.10;;;13.10;90.00;;;;;;5075479;28;20120;-70
2021/10/02 06:12:06;;;;;;;7.20;3.22;;;13.20;89.00;;;;;;5074502;28;20374;-70
2021/10/02 06:14:32;;;;;;;5.47;2.78;;;13.30;87.90;;;;;;5075548;28;20041;-69
2021/10/02 06:16:58;;;;;;;5.35;2.90;;;13.30;87.40;;;;;;5072848;28;20491;-70
2021/10/02 06:19:23;;;;;;;7.40;3.00;;;13.40;87.70;;;;;;5070047;28;20099;-69
2021/10/02 06:21:49;;;;;;;5.40;2.72;;;13.40;87.30;;;;;;5070159;28;20321;-70
2021/10/02 06:24:15;;;;;;;4.88;2.40;;;13.50;87.70;;;;;;5075218;28;20044;-69
2021/10/02 06:26:41;;;;;;;6.20;3.10;;;13.70;86.80;;;;;;5073575;28;20437;-69
2021/10/02 06:29:08;;;;;;;7.13;2.88;;;13.80;85.60;;;;;;5055054;28;20139;-70
2021/10/02 06:31:35;;;;;;;5.72;2.40;;;13.80;84.90;;;;;;5065289;28;20053;-69
2021/10/02 06:34:01;;;;;;;8.88;2.95;;;13.80;83.80;;;;;;5068802;28;20021;-69
2021/10/02 06:36:28;;;;;;;4.40;2.20;;;13.90;83.20;;;;;;5054392;28;20025;-70
2021/10/02 06:38:59;;;;;;;5.40;2.58;;;13.90;82.70;;;;;;5055523;28;20028;-70
2021/10/02 06:41:28;;;;;;;6.57;2.22;;;13.90;82.90;;;;;;5070432;28;20043;-69
2021/10/02 06:43:53;;;;;;;5.47;2.55;;;13.90;82.70;;;;;;5059341;28;20028;-69
2021/10/02 06:46:19;;;;;;;5.38;2.30;;;13.90;82.10;;;;;;5066263;28;20032;-69
2021/10/02 06:48:45;;;;;;;7.13;2.85;;;13.90;82.30;;;;;;5077756;28;20025;-69
2021/10/02 06:51:10;;;;;;;6.10;2.55;;;13.90;82.30;;;;;;5078124;28;20108;-69
2021/10/02 06:53:36;;;;;;;6.00;2.28;;;14.00;82.10;;;;;;5078903;28;20325;-69
2021/10/02 06:56:04;;;;;;;6.90;2.58;;;13.90;83.30;;;;;;5077989;28;20033;-69
2021/10/02 06:58:33;;;;;;;6.22;2.42;;;13.90;83.10;;;;;;5079043;28;20035;-68
2021/10/02 07:00:59;;;;;;;4.88;2.42;;;13.90;83.50;;;;;;5077117;28;20029;-69
2021/10/02 07:03:25;;;;;;;5.00;2.20;;;13.90;83.70;;;;;;5078629;28;20068;-68
2021/10/02 07:05:51;;;;;;;4.97;2.47;;;13.80;83.60;;;;;;5062737;28;20527;-71
2021/10/02 07:08:16;;;;;;;5.60;2.30;;;13.80;84.00;;;;;;5069469;28;20028;-70
2021/10/02 07:10:42;;;;;;;6.25;2.60;;;13.80;84.80;;;;;;5077427;28;20056;-69
2021/10/02 07:13:08;;;;;;;5.50;2.53;;;13.90;84.60;;;;;;5077017;28;20052;-70
2021/10/02 07:15:33;;;;;;;6.75;2.30;;;14.00;83.60;;;;;;5078123;28;20040;-70
2021/10/02 07:17:59;;;;;;;7.55;2.25;;;14.10;84.00;;;;;;5077979;28;20401;-70
2021/10/02 07:20:26;;;;;;;5.28;2.20;;;14.20;84.60;;;;;;5068104;28;20035;-69
2021/10/02 07:22:52;;;;;;;7.22;2.63;;;14.30;83.40;;;;;;5074784;28;20115;-69
2021/10/02 07:25:18;;;;;;;5.78;2.60;;;14.40;82.70;;;;;;5077349;28;20099;-69
2021/10/02 07:27:44;;;;;;;5.68;2.38;;;14.70;81.20;;;;;;5078115;28;20437;-69
2021/10/02 07:30:12;;;;;;;4.95;2.40;;;14.80;81.70;;;;;;5072002;28;20031;-69
2021/10/02 07:32:38;;;;;;;5.28;2.60;;;14.90;80.60;;;;;;5062781;28;20027;-69
2021/10/02 07:35:06;;;;;;;5.25;2.20;;;14.90;80.30;;;;;;5070399;28;20020;-69
2021/10/02 07:37:32;;;;;;;4.85;2.33;;;14.80;80.20;;;;;;5076493;28;20029;-69
2021/10/02 07:40:00;;;;;;;4.68;2.30;;;14.80;80.40;;;;;;5066431;28;20083;-69
2021/10/02 07:42:26;;;;;;;4.20;2.10;;;14.90;80.10;;;;;;5070925;28;20111;-69
2021/10/02 07:45:01;;;;;;;5.55;2.47;;;14.90;81.40;;;;;;5077966;28;20028;-69
2021/10/02 07:47:27;;;;;;;8.15;2.50;;;14.90;80.90;;;;;;5076562;28;20043;-69
2021/10/02 07:49:55;;;;;;;6.82;2.70;;;15.10;80.80;;;;;;5065398;28;20025;-69
2021/10/02 07:52:22;;;;;;;5.55;2.70;;;15.30;81.30;;;;;;5070385;28;20020;-69
2021/10/02 07:54:50;;;;;;;5.85;2.80;;;15.50;80.60;;;;;;5076006;28;20101;-69
2021/10/02 07:57:18;;;;;;;5.28;2.42;;;15.70;80.10;;;;;;5077418;28;20036;-69
2021/10/02 07:59:46;;;;;;;6.30;2.80;;;16.00;79.20;;;;;;5066739;28;20036;-69
2021/10/02 08:02:20;;;;;;;7.95;2.78;;;16.30;79.50;;;;;;5059663;28;20040;-69
2021/10/02 08:04:46;;;;;;;8.05;2.45;;;16.60;78.90;;;;;;5074400;28;20037;-69
2021/10/02 08:07:19;;;;;;;7.32;2.67;;;17.10;77.00;;;;;;5077560;28;20036;-69
2021/10/02 08:09:46;;;;;;;5.05;2.30;;;17.60;76.70;;;;;;5077591;28;20021;-70
2021/10/02 08:12:14;;;;;;;4.45;2.58;;;18.70;75.40;;;;;;5074644;28;20447;-70
2021/10/02 08:14:40;;;;;;;10.90;3.10;;;19.60;72.40;;;;;;5071587;28;20365;-69
2021/10/02 08:17:08;;;;;;;5.93;2.90;;;20.00;71.90;;;;;;5073501;28;20036;-70
2021/10/02 08:19:35;;;;;;;5.93;3.22;;;20.40;70.50;;;;;;5069815;28;20063;-70
2021/10/02 08:22:06;;;;;;;6.00;3.45;;;20.30;70.90;;;;;;5057360;28;20317;-69
2021/10/02 08:24:32;;;;;;;8.23;3.10;;;20.40;71.60;;;;;;5057205;28;20479;-69
2021/10/02 08:26:59;;;;;;;7.93;3.15;;;20.90;71.20;;;;;;5060638;28;20448;-70
2021/10/02 08:29:25;;;;;;;7.13;3.72;;;21.40;71.50;;;;;;5077360;28;20027;-69
2021/10/02 08:31:52;;;;;;;6.13;3.22;;;21.70;70.40;;;;;;5069317;28;20051;-70
2021/10/02 08:34:18;;;;;;;6.40;3.72;;;21.70;70.80;;;;;;5061948;28;20454;-69
2021/10/02 08:36:43;;;;;;;9.10;3.72;;;22.10;70.20;;;;;;5063868;28;20032;-69
2021/10/02 08:39:11;;;;;;;8.73;4.28;;;21.90;69.40;;;;;;5060487;28;20036;-70
2021/10/02 08:41:38;;;;;;;7.18;3.80;;;21.10;71.60;;;;;;5059479;28;20028;-69
2021/10/02 08:44:05;;;;;;;7.35;3.90;;;21.40;72.00;;;;;;5075459;28;20448;-70
2021/10/02 08:46:33;;;;;;;7.93;3.80;;;22.20;70.40;;;;;;5073338;28;20028;-70
2021/10/02 08:49:20;;;;;;;7.03;4.18;;;22.10;69.80;;;;;;5067725;28;20024;-70
2021/10/02 08:51:48;;;;;;;7.47;3.65;;;21.70;70.50;;;;;;5056727;28;20021;-69
2021/10/02 08:54:18;;;;;;;7.00;4.07;;;20.50;73.70;;;;;;5073652;28;20306;-69
2021/10/02 08:56:46;;;;;;;8.10;4.53;;;20.50;73.90;;;;;;5075559;28;20456;-69
2021/10/02 08:59:13;;;;;;;10.90;4.20;;;21.00;72.60;;;;;;5066176;28;20028;-70
2021/10/02 09:01:40;;;;;;;7.28;3.83;;;21.00;72.80;;;;;;5056549;28;20025;-70
2021/10/02 09:04:06;;;;;;;7.03;3.88;;;21.50;72.50;;;;;;5055593;28;20036;-70
2021/10/02 09:06:33;;;;;;;7.75;3.60;;;22.20;71.20;;;;;;5056367;28;20037;-70
2021/10/02 09:08:59;;;;;;;8.60;3.67;;;22.50;70.40;;;;;;5056441;28;20028;-70
2021/10/02 09:11:27;;;;;;;7.47;3.90;;;22.50;69.40;;;;;;5059501;28;20025;-70
2021/10/02 09:13:53;;;;;;;6.35;3.80;;;22.50;69.00;;;;;;5067040;28;20507;-70
2021/10/02 09:16:19;;;;;;;6.93;3.63;;;22.90;69.50;;;;;;5072447;28;20409;-71
2021/10/02 09:18:46;;;;;;;8.57;4.70;;;22.90;69.40;;;;;;5072857;28;20041;-70
2021/10/02 09:21:12;;;;;;;6.72;3.50;;;23.20;67.30;;;;;;5056126;28;20299;-70
2021/10/02 09:23:47;;;;;;;7.03;3.40;;;23.80;67.10;;;;;;5056304;28;20036;-70
2021/10/02 09:26:13;;;;;;;6.75;3.00;;;24.20;65.80;;;;;;5054813;28;20349;-69
2021/10/02 09:28:42;;;;;;;7.45;3.10;;;24.50;65.00;;;;;;5059775;28;20099;-70
2021/10/02 09:31:11;;;;;;;7.47;3.60;;;25.40;63.40;;;;;;5075981;28;20040;-70
2021/10/02 09:33:43;;;;;;;5.13;3.22;;;26.00;62.80;;;;;;5075961;28;20362;-70
2021/10/02 09:36:26;;;;;;;8.52;3.05;;;26.10;62.50;;;;;;5075943;28;20020;-70
2021/10/02 09:38:53;;;;;;;6.47;3.22;;;27.20;60.20;;;;;;5075480;28;20025;-70
2021/10/02 09:41:22;;;;;;;6.18;3.47;;;26.40;59.40;;;;;;5074450;28;20111;-69
2021/10/02 09:43:53;;;;;;;5.75;3.50;;;25.80;61.20;;;;;;5074698;28;20070;-69
2021/10/02 09:46:34;;;;;;;6.60;3.15;;;25.00;63.10;;;;;;5075637;28;20031;-69
2021/10/02 09:49:00;;;;;;;7.93;3.85;;;24.50;63.30;;;;;;5074760;28;20085;-70
2021/10/02 09:51:40;;;;;;;5.15;3.10;;;23.80;64.20;;;;;;5075647;28;20028;-69
2021/10/02 09:54:37;;;;;;;6.43;3.15;;;23.50;66.50;;;;;;5075095;28;20060;-69
2021/10/02 09:57:12;;;;;;;6.93;3.38;;;23.80;64.60;;;;;;5069304;28;20434;-69
2021/10/02 09:59:38;;;;;;;9.18;3.42;;;23.80;64.30;;;;;;5056003;28;20025;-69
2021/10/02 10:02:29;;;;;;;6.78;3.13;;;23.40;66.30;;;;;;5074427;28;20412;-69
2021/10/02 10:04:55;;;;;;;6.97;3.13;;;23.80;65.00;;;;;;5075806;28;20021;-69
2021/10/02 10:07:22;;;;;;;6.80;3.15;;;23.80;64.30;;;;;;5075244;28;20115;-69
2021/10/02 10:10:10;;;;;;;5.60;3.17;;;23.80;65.40;;;;;;5075491;28;20024;-69
2021/10/02 10:12:41;;;;;;;6.63;3.03;;;24.00;64.80;;;;;;5075573;28;20367;-69
2021/10/02 10:15:43;;;;;;;5.22;3.05;;;23.40;64.40;;;;;;5075294;28;20401;-69
2021/10/02 10:18:15;;;;;;;6.03;2.90;;;23.00;65.70;;;;;;5060275;28;20041;-70
2021/10/02 10:20:53;;;;;;;5.90;3.20;;;23.10;65.10;;;;;;5055320;28;20321;-69
2021/10/02 10:23:41;;;;;;;9.23;3.22;;;23.70;65.70;;;;;;5060545;28;20104;-69
2021/10/02 10:26:12;;;;;;;5.63;3.03;;;24.30;64.00;;;;;;5069359;28;20036;-68
2021/10/02 10:28:41;;;;;;;7.35;3.80;;;24.50;62.90;;;;;;5055336;28;20025;-69
2021/10/02 10:31:27;;;;;;;6.50;3.42;;;24.10;63.20;;;;;;5057311;28;20029;-70
2021/10/02 10:33:57;;;;;;;5.35;2.80;;;23.40;67.50;;;;;;5071763;28;20044;-69
2021/10/02 10:36:31;;;;;;;6.25;3.17;;;24.60;64.60;;;;;;5057052;28;20388;-69
2021/10/02 10:38:57;;;;;;;6.20;2.92;;;25.00;63.40;;;;;;5055311;28;20349;-69
2021/10/02 10:41:26;;;;;;;5.72;2.83;;;25.60;60.80;;;;;;5054181;28;20033;-69
2021/10/02 10:43:52;;;;;;;7.50;2.90;;;25.30;60.80;;;;;;5055103;28;20029;-69
2021/10/02 10:46:21;;;;;;;6.15;2.92;;;25.90;60.80;;;;;;5055013;28;20067;-69
2021/10/02 10:48:49;;;;;;;6.20;3.30;;;26.20;59.80;;;;;;5055132;28;20318;-69
2021/10/02 10:51:15;;;;;;;5.95;3.40;;;25.40;60.90;;;;;;5055136;28;20040;-69
2021/10/02 10:53:43;;;;;;;6.68;3.10;;;25.10;62.50;;;;;;5070151;28;20087;-70
2021/10/02 10:56:11;;;;;;;4.95;2.83;;;24.80;61.50;;;;;;5067239;28;20025;-70
2021/10/02 10:58:38;;;;;;;5.38;2.75;;;25.10;61.50;;;;;;5065627;28;20140;-69
2021/10/02 11:01:07;;;;;;;6.55;2.70;;;25.10;60.20;;;;;;5055045;28;20063;-70
2021/10/02 11:03:47;;;;;;;5.80;3.08;;;24.90;60.80;;;;;;5070223;28;20040;-69
2021/10/02 11:06:21;;;;;;;5.47;2.70;;;24.60;61.30;;;;;;5074498;28;20078;-69
2021/10/02 11:08:55;;;;;;;8.00;3.13;;;24.50;61.10;;;;;;5074953;28;20087;-70
2021/10/02 11:11:43;;;;;;;6.40;2.88;;;24.60;61.10;;;;;;5072349;28;20029;-69
2021/10/02 11:14:13;;;;;;;5.60;3.13;;;24.50;60.20;;;;;;5072083;28;20023;-69
2021/10/02 11:16:41;;;;;;;5.50;3.13;;;24.30;61.20;;;;;;5054747;28;20028;-69
2021/10/02 11:19:34;;;;;;;5.40;2.70;;;24.20;61.30;;;;;;5054641;28;20049;-69
2021/10/02 11:22:52;;;;;;;5.65;2.90;;;24.20;61.40;;;;;;5071967;28;20040;-69
2021/10/02 11:25:20;;;;;;;5.00;2.78;;;24.20;59.70;;;;;;5051134;28;20035;-69
2021/10/02 11:27:47;;;;;;;6.70;3.08;;;24.00;61.40;;;;;;5075075;28;20048;-69
2021/10/02 11:30:15;;;;;;;7.25;2.70;;;24.10;62.00;;;;;;5078422;28;20035;-70
2021/10/02 11:32:41;;;;;;;5.10;2.67;;;24.40;62.40;;;;;;5078184;28;20035;-69
2021/10/02 11:35:20;;;;;;;6.75;2.65;;;25.20;60.90;;;;;;5078130;28;20086;-70
2021/10/02 11:38:07;;;;;;;5.68;2.92;;;25.20;58.60;;;;;;5078181;28;20020;-69
2021/10/02 11:40:38;;;;;;;4.88;2.38;;;25.20;58.90;;;;;;5076822;28;20051;-69
2021/10/02 11:43:13;;;;;;;5.97;2.67;;;25.30;59.50;;;;;;5077910;28;20111;-70
2021/10/02 11:45:45;;;;;;;6.55;2.90;;;25.70;59.40;;;;;;5077935;28;20103;-69
2021/10/02 11:48:36;;;;;;;5.65;2.85;;;26.40;60.40;;;;;;5077110;28;20486;-70
2021/10/02 11:51:29;;;;;;;5.97;3.17;;;26.10;57.90;;;;;;5070869;28;20028;-70
2021/10/02 11:54:12;;;;;;;5.50;3.17;;;25.50;59.70;;;;;;5077134;28;20424;-69
2021/10/02 11:56:42;;;;;;;6.05;2.85;;;24.70;62.40;;;;;;5076611;28;20021;-68
2021/10/02 11:59:08;;;;;;;4.88;2.80;;;24.50;62.80;;;;;;5061134;28;20033;-69
2021/10/02 12:01:45;;;;;;;5.50;3.05;;;24.70;63.40;;;;;;5076419;28;20452;-69
2021/10/02 12:04:15;;;;;;;7.40;3.35;;;25.20;63.50;;;;;;5076579;28;20033;-69
2021/10/02 12:06:44;;;;;;;7.25;3.53;;;25.50;60.60;;;;;;5077714;28;20017;-69
2021/10/02 12:09:12;;;;;;;6.90;3.10;;;25.30;61.10;;;;;;5077381;28;20060;-69
2021/10/02 12:11:49;;;;;;;6.07;3.25;;;25.30;61.60;;;;;;5076542;28;20023;-69
2021/10/02 12:14:17;;;;;;;5.50;2.75;;;25.30;61.50;;;;;;5077038;28;20032;-69
2021/10/02 12:16:57;;;;;;;6.88;3.25;;;25.30;61.40;;;;;;5077517;28;20032;-69
2021/10/02 12:19:23;;;;;;;5.38;3.00;;;25.50;60.90;;;;;;5077347;28;20113;-69
2021/10/02 12:21:58;;;;;;;6.30;3.25;;;25.50;62.30;;;;;;5077219;28;20367;-69
2021/10/02 12:24:26;;;;;;;6.72;3.70;;;25.20;62.00;;;;;;5077266;28;20025;-68
2021/10/02 12:27:02;;;;;;;6.20;3.22;;;25.00;61.90;;;;;;5075702;28;20104;-69
2021/10/02 12:29:42;;;;;;;6.97;3.17;;;24.50;62.70;;;;;;5077116;28;20024;-68
2021/10/02 12:32:15;;;;;;;5.30;3.08;;;24.10;64.30;;;;;;5077038;28;20421;-68
2021/10/02 12:34:47;;;;;;;7.93;3.53;;;23.50;65.40;;;;;;5076143;28;20029;-69
2021/10/02 12:37:19;;;;;;;7.32;3.38;;;22.80;66.00;;;;;;5076946;28;20017;-68
2021/10/02 12:39:52;;;;;;;6.20;3.20;;;22.30;68.60;;;;;;5077141;28;20028;-71
2021/10/02 12:42:32;;;;;;;6.20;3.25;;;22.30;68.40;;;;;;5076333;28;20025;-70
2021/10/02 12:45:01;;;;;;;5.53;3.17;;;22.50;68.50;;;;;;5077020;28;20024;-70
2021/10/02 12:47:28;;;;;;;5.78;3.40;;;22.60;68.40;;;;;;5076760;28;20032;-70
2021/10/02 12:49:57;;;;;;;5.93;3.28;;;22.50;68.10;;;;;;5076503;28;20025;-70
2021/10/02 12:52:24;;;;;;;5.95;3.38;;;22.40;67.20;;;;;;5059876;28;20053;-69
2021/10/02 12:54:56;;;;;;;5.72;2.90;;;22.70;66.70;;;;;;5056410;28;20070;-70
2021/10/02 12:57:37;;;;;;;5.53;3.13;;;23.40;65.10;;;;;;5063321;28;20059;-70
2021/10/02 13:00:11;;;;;;;6.72;3.35;;;24.20;64.20;;;;;;5076631;28;20075;-69
2021/10/02 13:02:45;;;;;;;6.93;3.40;;;24.70;64.70;;;;;;5076165;28;20047;-70
2021/10/02 13:05:13;;;;;;;6.10;3.47;;;24.90;62.60;;;;;;5075967;28;20821;-69
2021/10/02 13:07:47;;;;;;;6.00;3.55;;;24.70;63.60;;;;;;5076442;28;20028;-69
2021/10/02 13:10:17;;;;;;;5.90;3.42;;;24.60;62.30;;;;;;5075060;28;20733;-69
2021/10/02 13:12:52;;;;;;;7.65;4.05;;;24.20;64.70;;;;;;5076299;28;20101;-70
2021/10/02 13:15:39;;;;;;;6.22;3.70;;;24.30;63.60;;;;;;5076318;28;20339;-69
2021/10/02 13:18:07;;;;;;;5.00;3.15;;;24.20;62.90;;;;;;5059794;28;20421;-69
2021/10/02 13:21:03;;;;;;;7.35;3.60;;;24.00;66.30;;;;;;5076223;28;20020;-69
2021/10/02 13:23:39;;;;;;;7.53;3.38;;;24.00;63.00;;;;;;5069708;28;20028;-70
2021/10/02 13:26:09;;;;;;;6.97;3.35;;;23.90;63.00;;;;;;5074073;28;20075;-69
2021/10/02 13:28:46;;;;;;;10.93;3.47;;;23.80;64.30;;;;;;5075976;28;20058;-69
2021/10/02 13:31:14;;;;;;;6.57;3.38;;;23.80;64.30;;;;;;5075858;28;20027;-70
2021/10/02 13:33:42;;;;;;;10.25;3.10;;;23.70;65.80;;;;;;5075263;28;20024;-69
2021/10/02 13:36:28;;;;;;;7.43;3.72;;;23.80;64.60;;;;;;5075742;28;20024;-70
2021/10/02 13:39:06;;;;;;;5.75;3.50;;;23.50;66.60;;;;;;5075754;28;20384;-69
2021/10/02 13:41:32;;;;;;;5.85;3.38;;;23.80;66.10;;;;;;5054329;28;20032;-69
2021/10/02 13:44:03;;;;;;;8.55;4.10;;;23.10;65.10;;;;;;5057206;28;20317;-70
2021/10/02 13:46:43;;;;;;;5.65;3.13;;;23.00;67.40;;;;;;5075219;28;20032;-70
2021/10/02 13:49:11;;;;;;;5.90;3.65;;;23.40;65.90;;;;;;5074817;28;20028;-69
2021/10/02 13:51:37;;;;;;;5.80;3.25;;;23.70;65.20;;;;;;5065449;28;20028;-70
2021/10/02 13:54:04;;;;;;;6.35;3.35;;;23.80;66.00;;;;;;5055610;28;20049;-69
2021/10/02 13:56:36;;;;;;;5.32;3.10;;;24.10;65.40;;;;;;5061502;28;20032;-70
2021/10/02 13:59:02;;;;;;;7.43;3.42;;;24.50;64.90;;;;;;5075528;28;20111;-70
2021/10/02 14:01:31;;;;;;;6.57;3.60;;;24.70;63.60;;;;;;5075103;28;20289;-70
2021/10/02 14:03:57;;;;;;;5.80;3.33;;;24.70;65.60;;;;;;5075174;28;20055;-69